createdAt,value
2023-03-22T00:00:26.050Z,51.28
2023-03-22T00:02:58.385Z,43.92
2023-03-22T00:05:30.623Z,46.68
2023-03-22T00:08:01.643Z,42.33
2023-03-22T00:10:32.416Z,47.35
2023-03-22T00:13:03.814Z,43.33
2023-03-22T00:15:35.178Z,45.35
2023-03-22T00:18:07.069Z,43.65
2023-03-22T00:20:39.420Z,42.13
2023-03-22T00:23:10.495Z,42.62
2023-03-22T00:25:41.416Z,43.68
2023-03-22T00:28:12.322Z,41.73
2023-03-22T00:30:43.207Z,44.38
2023-03-22T00:33:14.040Z,42.45
2023-03-22T00:35:53.201Z,44.67
2023-03-22T00:38:39.538Z,53.38
2023-03-22T00:40:56.878Z,48.30
2023-03-22T00:43:28.473Z,54.60
2023-03-22T00:45:59.324Z,52.25
2023-03-22T00:48:30.770Z,44.65
2023-03-22T00:51:02.186Z,44.60
2023-03-22T00:53:34.146Z,40.98
2023-03-22T00:56:05.820Z,45.88
2023-03-22T00:58:36.945Z,43.33
2023-03-22T01:01:08.672Z,46.77
2023-03-22T01:03:39.945Z,44.55
2023-03-22T01:06:13.496Z,42.10
2023-03-22T01:08:44.219Z,71.00
2023-03-22T01:11:15.325Z,106.35
2023-03-22T01:13:46.724Z,43.83
2023-03-22T01:16:17.682Z,43.85
2023-03-22T01:18:48.929Z,48.63
2023-03-22T01:21:19.916Z,47.43
2023-03-22T01:23:51.011Z,56.73
2023-03-22T01:26:21.909Z,49.83
2023-03-22T01:28:52.985Z,46.18
2023-03-22T01:31:24.100Z,47.15
2023-03-22T01:33:55.624Z,48.00
2023-03-22T01:36:27.178Z,51.73
2023-03-22T01:38:58.328Z,46.80
2023-03-22T01:41:29.454Z,48.28
2023-03-22T01:44:14.869Z,42.17
2023-03-22T01:46:47.753Z,47.73
2023-03-22T01:49:24.279Z,46.10
2023-03-22T01:54:41.706Z,49.05
2023-03-22T01:57:13.094Z,51.37
2023-03-22T01:59:46.126Z,44.77
2023-03-22T02:02:18.947Z,53.42
2023-03-22T02:04:54.947Z,44.18
2023-03-22T02:07:27.746Z,45.17
2023-03-22T02:09:59.232Z,50.85
2023-03-22T02:13:06.539Z,45.40
2023-03-22T02:15:52.707Z,47.43
2023-03-22T02:18:52.359Z,48.15
2023-03-22T02:21:42.109Z,47.25
2023-03-22T02:24:36.121Z,41.48
2023-03-22T02:27:31.127Z,45.88
2023-03-22T02:30:04.724Z,38.45
2023-03-22T02:33:06.631Z,52.75
2023-03-22T02:35:50.068Z,49.75
2023-03-22T02:38:34.007Z,39.25
2023-03-22T02:41:16.753Z,38.50
2023-03-22T02:44:08.547Z,40.20
2023-03-22T02:46:48.015Z,41.80
2023-03-22T02:49:43.210Z,41.50
2023-03-22T02:52:19.430Z,40.43
2023-03-22T02:58:31.137Z,37.23
2023-03-22T03:01:07.628Z,42.55
2023-03-22T03:06:12.523Z,35.30
2023-03-22T03:08:45.248Z,39.30
2023-03-22T03:11:16.360Z,33.30
2023-03-22T03:13:51.569Z,37.58
2023-03-22T03:16:26.409Z,37.33
2023-03-22T03:19:21.041Z,31.37
2023-03-22T03:21:54.658Z,34.73
2023-03-22T03:24:33.978Z,31.93
2023-03-22T03:27:22.780Z,30.57
2023-03-22T03:30:08.544Z,32.38
2023-03-22T03:32:43.145Z,32.88
2023-03-22T03:35:38.685Z,55.55
2023-03-22T03:38:14.922Z,29.23
2023-03-22T03:40:48.230Z,34.50
2023-03-22T03:43:22.720Z,31.12
2023-03-22T03:45:54.474Z,32.48
2023-03-22T03:48:31.178Z,38.90
2023-03-22T03:51:03.601Z,36.05
2023-03-22T03:53:34.850Z,33.08
2023-03-22T03:56:06.049Z,37.50
2023-03-22T03:58:37.035Z,32.03
2023-03-22T04:01:08.423Z,32.55
2023-03-22T04:03:39.426Z,36.33
2023-03-22T04:06:10.875Z,37.20
2023-03-22T04:08:42.479Z,33.33
2023-03-22T04:11:13.565Z,33.02
2023-03-22T04:13:44.603Z,34.75
2023-03-22T04:16:15.572Z,37.55
2023-03-22T04:18:47.097Z,33.80
2023-03-22T04:21:18.122Z,32.08
2023-03-22T04:23:49.397Z,34.27
2023-03-22T04:26:20.597Z,34.27
2023-03-22T04:28:51.549Z,33.80
2023-03-22T04:31:22.693Z,28.85
2023-03-22T04:33:55.173Z,29.80
2023-03-22T04:36:27.262Z,43.52
2023-03-22T04:38:58.204Z,29.70
2023-03-22T04:41:30.294Z,28.55
2023-03-22T04:44:02.777Z,38.13
2023-03-22T04:46:45.671Z,32.67
2023-03-22T04:49:16.919Z,32.08
2023-03-22T04:51:48.103Z,35.23
2023-03-22T04:54:19.223Z,26.27
2023-03-22T04:56:50.727Z,33.02
2023-03-22T04:59:22.060Z,29.37
2023-03-22T05:01:54.169Z,28.45
2023-03-22T05:04:26.885Z,26.75
2023-03-22T05:06:58.163Z,23.50
2023-03-22T05:09:29.849Z,26.30
2023-03-22T05:12:01.052Z,25.40
2023-03-22T05:14:32.360Z,23.40
2023-03-22T05:17:05.181Z,23.83
2023-03-22T05:19:36.391Z,29.57
2023-03-22T05:22:07.539Z,26.05
2023-03-22T05:24:38.788Z,23.73
2023-03-22T05:27:11.394Z,22.42
2023-03-22T05:29:43.743Z,22.60
2023-03-22T05:32:15.507Z,23.95
2023-03-22T05:34:46.687Z,22.55
2023-03-22T05:37:17.967Z,23.42
2023-03-22T05:39:49.099Z,24.25
2023-03-22T05:42:20.063Z,21.07
2023-03-22T05:44:51.146Z,22.17
2023-03-22T05:47:22.191Z,22.60
2023-03-22T05:49:53.169Z,29.57
2023-03-22T05:52:24.203Z,23.92
2023-03-22T05:55:15.149Z,20.92
2023-03-22T05:57:47.796Z,23.73
2023-03-22T06:00:40.649Z,20.62
2023-03-22T06:03:12.055Z,23.75
2023-03-22T06:05:44.284Z,23.55
2023-03-22T06:08:15.828Z,25.85
2023-03-22T06:10:47.383Z,20.25
2023-03-22T06:13:18.906Z,19.87
2023-03-22T06:15:50.265Z,22.60
2023-03-22T06:18:21.624Z,18.90
2023-03-22T06:20:52.785Z,21.62
2023-03-22T06:23:23.779Z,23.27
2023-03-22T06:25:55.092Z,23.87
2023-03-22T06:28:27.603Z,43.25
2023-03-22T06:30:58.790Z,21.48
2023-03-22T06:33:30.054Z,28.70
2023-03-22T06:36:02.561Z,21.73
2023-03-22T06:38:33.852Z,22.45
2023-03-22T06:41:05.457Z,17.57
2023-03-22T06:43:36.513Z,20.05
2023-03-22T06:46:08.024Z,23.32
2023-03-22T06:48:39.503Z,30.05
2023-03-22T06:51:11.775Z,19.85
2023-03-22T06:53:42.745Z,16.65
2023-03-22T06:56:14.073Z,21.50
2023-03-22T06:58:45.342Z,25.25
2023-03-22T07:01:16.598Z,20.50
2023-03-22T07:03:48.046Z,19.77
2023-03-22T07:06:19.551Z,52.95
2023-03-22T07:08:52.018Z,17.70
2023-03-22T07:11:23.508Z,21.17
2023-03-22T07:13:55.477Z,25.08
2023-03-22T07:16:26.650Z,20.12
2023-03-22T07:18:58.352Z,21.42
2023-03-22T07:21:29.306Z,17.20
2023-03-22T07:24:00.585Z,76.53
2023-03-22T07:26:31.912Z,23.22
2023-03-22T07:29:04.997Z,24.07
2023-03-22T07:31:39.292Z,25.10
2023-03-22T07:34:11.080Z,39.05
2023-03-22T07:36:42.153Z,28.87
2023-03-22T07:39:13.244Z,24.92
2023-03-22T07:42:02.465Z,26.50
2023-03-22T07:44:33.860Z,18.25
2023-03-22T07:47:04.954Z,23.45
2023-03-22T07:49:35.982Z,16.82
2023-03-22T07:52:07.610Z,17.07
2023-03-22T07:54:38.790Z,22.42
2023-03-22T07:57:10.014Z,20.75
2023-03-22T07:59:41.087Z,15.55
2023-03-22T08:02:13.850Z,46.08
2023-03-22T08:04:47.235Z,31.25
2023-03-22T08:07:19.650Z,19.92
2023-03-22T08:09:51.334Z,16.93
2023-03-22T08:12:42.600Z,17.77
2023-03-22T08:15:14.435Z,19.57
2023-03-22T08:17:46.872Z,18.62
2023-03-22T08:20:19.879Z,16.37
2023-03-22T08:22:50.979Z,21.25
2023-03-22T08:25:22.712Z,17.17
2023-03-22T08:27:54.745Z,20.02
2023-03-22T08:30:25.926Z,20.77
2023-03-22T08:32:57.502Z,17.98
2023-03-22T08:35:30.227Z,22.65
2023-03-22T08:38:02.294Z,18.90
2023-03-22T08:40:33.670Z,21.07
2023-03-22T08:43:04.741Z,24.15
2023-03-22T08:45:35.656Z,18.10
2023-03-22T08:48:08.875Z,18.17
2023-03-22T08:50:40.878Z,20.17
2023-03-22T08:53:12.252Z,25.32
2023-03-22T08:55:44.707Z,21.95
2023-03-22T08:58:24.251Z,22.35
2023-03-22T09:00:55.783Z,19.37
2023-03-22T09:03:27.356Z,25.25
2023-03-22T09:05:58.350Z,17.98
2023-03-22T09:08:30.201Z,20.57
2023-03-22T09:11:01.755Z,18.73
2023-03-22T09:13:33.459Z,17.75
2023-03-22T09:16:05.400Z,19.27
2023-03-22T09:18:36.386Z,31.50
2023-03-22T09:21:09.463Z,25.70
2023-03-22T09:23:43.065Z,18.15
2023-03-22T09:26:20.178Z,21.77
2023-03-22T09:28:51.840Z,19.67
2023-03-22T09:31:23.224Z,18.57
2023-03-22T09:33:54.533Z,25.97
2023-03-22T09:36:25.585Z,23.38
2023-03-22T09:38:57.696Z,18.25
2023-03-22T09:41:42.887Z,24.00
2023-03-22T09:44:23.555Z,20.92
2023-03-22T09:46:56.759Z,22.65
2023-03-22T09:49:30.209Z,24.95
2023-03-22T09:52:02.056Z,21.75
2023-03-22T09:54:43.419Z,22.13
2023-03-22T09:57:32.973Z,19.10
2023-03-22T10:00:13.814Z,24.75
2023-03-22T10:02:58.969Z,22.55
2023-03-22T10:05:44.180Z,26.02
2023-03-22T10:08:29.344Z,35.60
2023-03-22T10:11:02.405Z,20.40
2023-03-22T10:13:38.430Z,24.87
2023-03-22T10:16:12.168Z,21.10
2023-03-22T10:18:50.353Z,22.50
2023-03-22T10:21:23.053Z,20.80
2023-03-22T10:24:08.306Z,22.67
2023-03-22T10:26:47.352Z,22.25
2023-03-22T10:29:39.015Z,22.22
2023-03-22T10:32:21.811Z,23.45
2023-03-22T10:34:54.051Z,20.97
2023-03-22T10:37:27.643Z,22.15
2023-03-22T10:40:00.648Z,23.40
2023-03-22T10:42:32.689Z,27.30
2023-03-22T10:45:12.100Z,20.35
2023-03-22T10:47:48.428Z,23.07
2023-03-22T10:50:24.517Z,21.90
2023-03-22T10:53:09.646Z,18.42
2023-03-22T10:55:44.886Z,25.23
2023-03-22T10:58:21.701Z,19.98
2023-03-22T11:00:55.081Z,21.15
2023-03-22T11:03:38.602Z,21.82
2023-03-22T11:06:21.137Z,27.58
2023-03-22T11:08:56.290Z,26.93
2023-03-22T11:11:38.770Z,20.72
2023-03-22T11:14:12.029Z,26.73
2023-03-22T11:17:00.021Z,20.80
2023-03-22T11:19:44.665Z,24.20
2023-03-22T11:22:34.647Z,28.67
2023-03-22T11:25:07.788Z,28.35
2023-03-22T11:27:38.803Z,21.12
2023-03-22T11:30:27.766Z,25.23
2023-03-22T11:33:13.190Z,24.37
2023-03-22T11:35:46.594Z,24.52
2023-03-22T11:38:26.695Z,23.73
2023-03-22T11:41:03.461Z,22.75
2023-03-22T11:46:34.095Z,21.93
2023-03-22T11:49:07.411Z,18.82
2023-03-22T11:51:43.190Z,21.25
2023-03-22T11:54:28.337Z,19.67
2023-03-22T11:57:03.078Z,23.17
2023-03-22T12:03:12.925Z,27.17
2023-03-22T12:05:57.536Z,29.55
2023-03-22T12:08:38.132Z,34.73
2023-03-22T12:11:11.671Z,36.55
2023-03-22T12:13:47.959Z,30.50
2023-03-22T12:16:23.032Z,36.23
2023-03-22T12:19:17.507Z,27.95
2023-03-22T12:21:50.994Z,26.45
2023-03-22T12:24:27.282Z,28.35
2023-03-22T12:27:01.118Z,27.35
2023-03-22T12:29:34.130Z,29.95
2023-03-22T12:32:08.378Z,26.75
2023-03-22T12:34:45.118Z,33.15
2023-03-22T12:37:18.612Z,30.75
2023-03-22T12:40:07.499Z,28.85
2023-03-22T12:42:50.789Z,28.98
2023-03-22T12:45:18.036Z,30.72
2023-03-22T12:47:57.531Z,30.00
2023-03-22T12:50:43.227Z,29.90
2023-03-22T12:53:20.017Z,28.83
2023-03-22T12:55:53.256Z,25.25
2023-03-22T12:58:26.245Z,25.15
2023-03-22T13:01:05.898Z,27.00
2023-03-22T13:03:48.282Z,30.88
2023-03-22T13:06:47.510Z,32.70
2023-03-22T13:09:38.878Z,28.35
2023-03-22T13:12:25.692Z,27.40
2023-03-22T13:15:01.655Z,24.77
2023-03-22T13:17:36.924Z,28.30
2023-03-22T13:20:17.062Z,24.77
2023-03-22T13:22:53.447Z,28.40
2023-03-22T13:25:43.293Z,25.60
2023-03-22T13:28:32.216Z,26.87
2023-03-22T13:31:03.296Z,31.95
2023-03-22T13:33:39.384Z,25.20
2023-03-22T13:38:46.364Z,24.37
2023-03-22T13:41:33.921Z,23.75
2023-03-22T13:44:07.218Z,29.10
2023-03-22T13:46:48.934Z,29.07
2023-03-22T13:49:38.990Z,26.85
2023-03-22T13:52:12.370Z,25.20
2023-03-22T13:54:45.930Z,25.85
2023-03-22T13:57:39.039Z,25.72
2023-03-22T14:00:29.880Z,25.57
2023-03-22T14:03:17.836Z,34.48
2023-03-22T14:05:54.561Z,27.13
2023-03-22T14:08:29.401Z,28.12
2023-03-22T14:11:08.964Z,28.70
2023-03-22T14:19:25.094Z,30.95
